createdAt,value
2024-04-18T00:15:14.562Z,423.82
2024-04-18T00:30:39.552Z,423.19
2024-04-18T00:46:04.529Z,423.33
2024-04-18T01:01:29.499Z,422.18
2024-04-18T01:16:54.442Z,422.19
2024-04-18T01:32:19.469Z,423.51
2024-04-18T01:47:44.562Z,424.76
2024-04-18T02:03:09.495Z,423.81
2024-04-18T02:18:35.477Z,422.90
2024-04-18T02:34:01.432Z,422.86
2024-04-18T02:49:26.445Z,422.99
2024-04-18T03:04:51.410Z,424.23
2024-04-18T03:20:16.411Z,424.97
2024-04-18T03:35:41.375Z,424.18
2024-04-18T03:51:06.356Z,422.79
2024-04-18T04:06:33.619Z,422.18
2024-04-18T04:21:56.512Z,420.77
2024-04-18T04:37:21.347Z,420.08
2024-04-18T04:52:46.457Z,419.02
2024-04-18T05:08:11.293Z,419.00
2024-04-18T05:23:36.266Z,418.48
2024-04-18T05:39:01.271Z,418.46
2024-04-18T05:54:26.475Z,416.47
2024-04-18T06:09:51.450Z,415.30
2024-04-18T06:25:16.305Z,414.28
2024-04-18T06:40:41.293Z,413.84
2024-04-18T06:56:06.270Z,412.65
2024-04-18T07:11:31.215Z,412.41
2024-04-18T07:26:57.127Z,411.17
2024-04-18T07:42:21.246Z,408.53
2024-04-18T07:57:46.835Z,405.43
2024-04-18T08:13:15.127Z,403.54
2024-04-18T08:28:36.195Z,400.83
2024-04-18T08:44:05.765Z,400.00
2024-04-18T08:59:26.300Z,399.36
2024-04-18T09:14:51.182Z,398.47
2024-04-18T09:30:16.181Z,398.26
2024-04-18T09:45:41.266Z,397.67
2024-04-18T10:01:06.202Z,397.63
2024-04-18T10:16:33.202Z,397.13
2024-04-18T10:31:58.092Z,396.45
2024-04-18T10:47:23.454Z,395.39
2024-04-18T11:02:48.086Z,395.36
2024-04-18T11:18:13.252Z,395.22
2024-04-18T11:33:38.198Z,396.08
2024-04-18T11:49:03.418Z,395.94
2024-04-18T12:04:28.336Z,394.78
2024-04-18T12:19:53.160Z,393.65
2024-04-18T12:35:18.105Z,392.50
2024-04-18T12:50:43.167Z,392.10
2024-04-18T13:06:08.137Z,391.08
2024-04-18T13:21:33.121Z,388.42
2024-04-18T13:36:58.032Z,386.69
2024-04-18T13:52:23.105Z,385.51
2024-04-18T14:07:48.038Z,385.44
2024-04-18T14:23:13.019Z,383.80
2024-04-18T14:38:38.065Z,383.43
2024-04-18T14:54:03.077Z,384.28
2024-04-18T15:09:57.055Z,383.29
2024-04-18T15:25:22.010Z,381.89
2024-04-18T15:40:46.934Z,379.98
2024-04-18T15:56:14.998Z,378.58
2024-04-18T16:11:36.972Z,377.18
2024-04-18T16:27:01.964Z,375.82
2024-04-18T16:42:26.963Z,373.83
2024-04-18T16:57:52.041Z,371.19
2024-04-18T17:13:17.001Z,368.90
2024-04-18T17:28:42.014Z,366.71
2024-04-18T17:44:07.735Z,363.40
2024-04-18T17:59:32.091Z,362.22
2024-04-18T18:14:57.010Z,362.04
2024-04-18T18:30:21.988Z,359.36
2024-04-18T18:45:46.999Z,357.16
2024-04-18T19:01:11.873Z,355.54
2024-04-18T19:16:36.929Z,353.98
2024-04-18T19:32:01.884Z,353.68
2024-04-18T19:47:27.209Z,352.69
2024-04-18T20:02:51.941Z,352.21
2024-04-18T20:18:17.065Z,350.89
2024-04-18T20:33:41.880Z,349.60
2024-04-18T20:49:06.947Z,348.97
2024-04-18T21:04:31.806Z,349.29
2024-04-18T21:19:56.858Z,348.69
2024-04-18T21:35:21.862Z,347.49
2024-04-18T21:50:46.808Z,346.60
2024-04-18T22:06:11.864Z,348.36
2024-04-18T22:21:37.402Z,349.07
2024-04-18T22:37:01.810Z,347.94
2024-04-18T22:52:26.799Z,347.35
2024-04-18T23:07:51.764Z,347.42
2024-04-18T23:23:16.826Z,348.04
2024-04-18T23:38:41.880Z,349.02
2024-04-18T23:54:06.816Z,349.14
